Terminal Aerodrome Forecast
Issued by NWS

Home | Current Version | Previous Version | Text Only | Print | Product List | Glossary On
Versions: 1 2 3 4 5 6 7 8 9 10 11 12 13 14
000
FTUS43 KLSX 291731
TAFUIN
TAF
KUIN 291731Z 2918/3018 24008KT P6SM BKN035
      TEMPO 2918/2920 BKN025
     FM292100 24008KT P6SM VCTS BKN050CB
     FM300000 VRB02KT P6SM SCT050
     FM301000 VRB02KT 3SM BR SCT050
     FM301400 17005KT P6SM SCT030=

USA.gov is the U.S. government's official web portal to all federal, state and local government web resources and services.